createdAt,value
2022-10-16T00:01:33.138Z,9.11
2022-10-16T00:04:01.496Z,9.09
2022-10-16T00:06:29.817Z,9.09
2022-10-16T00:08:57.408Z,9.05
2022-10-16T00:11:30.251Z,9.09
2022-10-16T00:14:00.376Z,9.10
2022-10-16T00:16:29.514Z,9.16
2022-10-16T00:18:57.128Z,9.18
2022-10-16T00:21:27.896Z,9.26
2022-10-16T00:24:00.480Z,9.30
2022-10-16T00:26:30.468Z,9.36
2022-10-16T00:28:57.688Z,9.39
2022-10-16T00:31:26.063Z,9.46
2022-10-16T00:33:53.472Z,9.50
2022-10-16T00:36:23.781Z,9.51
2022-10-16T00:38:56.635Z,9.49
2022-10-16T00:41:25.844Z,9.51
2022-10-16T00:43:58.426Z,9.51
2022-10-16T00:46:43.046Z,9.53
2022-10-16T00:49:14.202Z,9.52
2022-10-16T00:51:54.841Z,9.51
2022-10-16T00:54:30.460Z,9.49
2022-10-16T00:57:04.726Z,9.49
2022-10-16T00:59:37.731Z,9.47
2022-10-16T01:02:08.131Z,9.37
2022-10-16T01:04:55.608Z,9.43
2022-10-16T01:07:41.049Z,9.39
2022-10-16T01:10:43.078Z,9.40
2022-10-16T01:13:23.082Z,9.39
2022-10-16T01:16:07.802Z,9.38
2022-10-16T01:18:43.963Z,9.41
2022-10-16T01:21:29.318Z,9.36
2022-10-16T01:24:24.037Z,9.32
2022-10-16T01:27:14.124Z,9.28
2022-10-16T01:30:10.953Z,9.30
2022-10-16T01:32:42.353Z,9.26
2022-10-16T01:35:13.467Z,9.18
2022-10-16T01:37:49.585Z,9.13
2022-10-16T01:40:19.703Z,9.11
2022-10-16T01:42:54.547Z,9.05
2022-10-16T01:45:22.565Z,9.02
2022-10-16T01:47:50.987Z,8.94
2022-10-16T01:50:21.834Z,8.90
2022-10-16T01:52:54.357Z,8.84
2022-10-16T01:55:29.333Z,8.73
2022-10-16T01:57:56.397Z,8.72
2022-10-16T02:00:24.486Z,8.69
2022-10-16T02:02:55.115Z,8.65
2022-10-16T02:05:32.429Z,8.62
2022-10-16T02:08:00.584Z,8.60
2022-10-16T02:10:32.848Z,8.59
2022-10-16T02:13:49.361Z,8.53
2022-10-16T02:16:16.962Z,8.52
2022-10-16T02:18:45.208Z,8.46
2022-10-16T02:21:24.273Z,8.44
2022-10-16T02:24:27.713Z,8.35
2022-10-16T02:27:11.743Z,8.32
2022-10-16T02:29:51.306Z,8.32
2022-10-16T02:32:23.216Z,8.24
2022-10-16T02:34:51.836Z,8.26
2022-10-16T02:37:20.241Z,8.19
2022-10-16T02:39:47.088Z,8.13
2022-10-16T02:42:15.286Z,8.13
2022-10-16T02:44:42.424Z,8.11
2022-10-16T02:47:09.328Z,8.09
2022-10-16T02:49:36.526Z,8.05
2022-10-16T02:52:04.169Z,8.02
2022-10-16T02:54:31.123Z,7.97
2022-10-16T02:56:58.011Z,7.96
2022-10-16T02:59:24.798Z,7.93
2022-10-16T03:01:51.729Z,7.89
2022-10-16T03:04:18.604Z,7.87
2022-10-16T03:06:45.389Z,7.85
2022-10-16T03:09:12.333Z,7.86
2022-10-16T03:11:39.176Z,7.80
2022-10-16T03:14:06.097Z,7.81
2022-10-16T03:16:33.205Z,7.76
2022-10-16T03:19:00.071Z,7.77
2022-10-16T03:21:26.851Z,7.78
2022-10-16T03:23:53.652Z,7.75
2022-10-16T03:26:20.451Z,7.74
2022-10-16T03:28:47.459Z,7.74
2022-10-16T03:31:14.235Z,7.72
2022-10-16T03:33:41.193Z,7.73
2022-10-16T03:36:07.967Z,7.73
2022-10-16T03:38:34.800Z,7.73
2022-10-16T03:41:01.744Z,7.73
2022-10-16T03:43:28.850Z,7.71
2022-10-16T03:45:55.703Z,7.70
2022-10-16T03:48:22.498Z,7.68
2022-10-16T03:50:49.532Z,7.73
2022-10-16T03:53:16.680Z,7.71
2022-10-16T03:55:44.649Z,7.70
2022-10-16T03:58:12.368Z,7.72
2022-10-16T04:00:43.929Z,7.71
2022-10-16T04:03:12.014Z,7.67
2022-10-16T04:05:38.984Z,7.65
2022-10-16T04:08:05.800Z,7.65
2022-10-16T04:10:33.086Z,7.63
2022-10-16T04:12:59.920Z,7.61
2022-10-16T04:15:27.347Z,7.58
2022-10-16T04:17:54.337Z,7.57
2022-10-16T04:20:21.368Z,7.55
2022-10-16T04:22:48.373Z,7.51
2022-10-16T04:25:15.303Z,7.52
2022-10-16T04:27:45.188Z,7.46
2022-10-16T04:30:13.417Z,7.47
2022-10-16T04:32:40.930Z,7.43
2022-10-16T04:35:08.608Z,7.44
2022-10-16T04:37:35.715Z,7.41
2022-10-16T04:40:02.520Z,7.40
2022-10-16T04:42:29.384Z,7.40
2022-10-16T04:44:56.232Z,7.36
2022-10-16T04:47:23.122Z,7.34
2022-10-16T04:49:49.929Z,7.35
2022-10-16T04:52:17.353Z,7.32
2022-10-16T04:54:46.256Z,7.29
2022-10-16T04:57:13.369Z,7.25
2022-10-16T04:59:40.155Z,7.22
2022-10-16T05:02:07.022Z,7.17
2022-10-16T05:04:33.835Z,7.14
2022-10-16T05:07:00.669Z,7.11
2022-10-16T05:09:27.755Z,7.09
2022-10-16T05:11:54.564Z,7.07
2022-10-16T05:14:21.344Z,7.01
2022-10-16T05:16:49.373Z,7.01
2022-10-16T05:19:26.808Z,6.98
2022-10-16T05:21:54.954Z,6.97
2022-10-16T05:24:21.762Z,6.96
2022-10-16T05:26:48.999Z,6.90
2022-10-16T05:29:15.761Z,6.91
2022-10-16T05:31:42.585Z,6.91
2022-10-16T05:34:09.466Z,6.88
2022-10-16T05:36:36.292Z,6.83
2022-10-16T05:39:03.939Z,6.83
2022-10-16T05:41:30.752Z,6.84
2022-10-16T05:43:57.500Z,6.81
2022-10-16T05:46:24.584Z,6.79
2022-10-16T05:48:54.409Z,6.76
2022-10-16T05:51:21.459Z,6.74
2022-10-16T05:53:48.692Z,6.69
2022-10-16T05:56:15.744Z,6.66
2022-10-16T05:58:43.260Z,6.61
2022-10-16T06:01:17.322Z,6.57
2022-10-16T06:03:44.710Z,6.54
2022-10-16T06:06:15.239Z,6.51
2022-10-16T06:08:44.622Z,6.48
2022-10-16T06:11:25.428Z,6.43
2022-10-16T06:14:02.921Z,6.40
2022-10-16T06:16:30.440Z,6.41
2022-10-16T06:18:57.660Z,6.40
2022-10-16T06:21:26.368Z,6.36
2022-10-16T06:23:54.074Z,6.34
2022-10-16T06:26:24.785Z,6.32
2022-10-16T06:28:51.681Z,6.31
2022-10-16T06:31:19.125Z,6.31
2022-10-16T06:33:48.075Z,6.28
2022-10-16T06:36:19.101Z,6.22
2022-10-16T06:38:45.981Z,6.25
2022-10-16T06:41:19.343Z,6.22
2022-10-16T06:43:47.161Z,6.24
2022-10-16T06:46:16.907Z,6.25
2022-10-16T06:48:44.345Z,6.30
2022-10-16T06:51:16.409Z,6.29
2022-10-16T06:54:06.128Z,6.32
2022-10-16T06:56:34.485Z,6.32
2022-10-16T06:59:01.679Z,6.33
2022-10-16T07:01:29.150Z,6.35
2022-10-16T07:03:56.042Z,6.37
2022-10-16T07:06:26.269Z,6.39
2022-10-16T07:08:53.673Z,6.41
2022-10-16T07:11:24.395Z,6.44
2022-10-16T07:13:55.099Z,6.46
2022-10-16T07:16:27.819Z,6.48
2022-10-16T07:19:00.769Z,6.51
2022-10-16T07:21:37.427Z,6.53
2022-10-16T07:24:07.693Z,6.55
2022-10-16T07:26:37.839Z,6.56
2022-10-16T07:29:05.042Z,6.60
2022-10-16T07:31:32.343Z,6.65
2022-10-16T07:34:01.284Z,6.66
2022-10-16T07:36:28.322Z,6.71
2022-10-16T07:38:58.644Z,6.75
2022-10-16T07:41:28.412Z,6.79
2022-10-16T07:43:57.576Z,6.83
2022-10-16T07:46:24.818Z,7.00
2022-10-16T07:48:52.008Z,7.30
2022-10-16T07:51:23.205Z,7.55
2022-10-16T07:53:50.810Z,7.79
2022-10-16T07:56:19.395Z,8.04
2022-10-16T07:58:46.945Z,8.26
2022-10-16T08:01:16.738Z,8.44
2022-10-16T08:03:51.520Z,8.62
2022-10-16T08:06:23.475Z,8.74
2022-10-16T08:08:53.797Z,8.90
2022-10-16T08:11:20.642Z,8.99
2022-10-16T08:13:47.521Z,9.13
2022-10-16T08:16:14.677Z,9.20
2022-10-16T08:18:42.065Z,9.33
2022-10-16T08:21:20.143Z,9.35
2022-10-16T08:23:51.530Z,9.47
2022-10-16T08:26:24.833Z,9.55
2022-10-16T08:28:52.987Z,9.63
2022-10-16T08:31:21.094Z,9.72
2022-10-16T08:33:48.914Z,9.78
2022-10-16T08:36:17.370Z,9.82
2022-10-16T08:38:44.269Z,9.86
2022-10-16T08:41:13.969Z,9.91
2022-10-16T08:44:01.596Z,9.93
2022-10-16T08:46:57.919Z,9.99
2022-10-16T08:49:25.852Z,9.94
2022-10-16T08:51:53.433Z,10.00
2022-10-16T08:54:46.272Z,9.93
2022-10-16T08:57:24.230Z,10.02
2022-10-16T08:59:52.743Z,10.02
2022-10-16T09:02:36.761Z,10.05
2022-10-16T09:05:12.711Z,10.08
2022-10-16T09:07:54.612Z,10.13
2022-10-16T09:10:40.802Z,10.15
2022-10-16T09:13:31.058Z,10.18
2022-10-16T09:16:31.530Z,10.21
2022-10-16T09:19:10.887Z,10.25
2022-10-16T09:21:42.810Z,10.25
2022-10-16T09:24:29.325Z,10.25
2022-10-16T09:26:56.528Z,10.25
2022-10-16T09:29:26.363Z,10.21
2022-10-16T09:31:56.472Z,10.21
2022-10-16T09:34:35.948Z,10.20
2022-10-16T09:37:10.151Z,10.19
2022-10-16T09:39:48.879Z,10.19
2022-10-16T09:42:37.693Z,10.16
2022-10-16T09:45:05.572Z,10.14
2022-10-16T09:47:33.281Z,10.13
2022-10-16T09:50:22.197Z,10.12
2022-10-16T09:52:49.125Z,10.10
2022-10-16T09:55:19.545Z,10.09
2022-10-16T09:57:56.226Z,10.10
2022-10-16T10:00:25.623Z,10.10
2022-10-16T10:05:41.568Z,10.17
2022-10-16T10:08:19.365Z,10.20
2022-10-16T10:10:49.915Z,10.22
2022-10-16T10:13:28.379Z,10.24
2022-10-16T10:15:55.331Z,10.30
2022-10-16T10:18:25.116Z,10.32
2022-10-16T10:21:01.705Z,10.31
2022-10-16T10:23:31.223Z,10.34
2022-10-16T10:26:14.037Z,10.38
2022-10-16T10:29:22.505Z,10.42
2022-10-16T10:32:11.544Z,10.43
2022-10-16T10:34:47.711Z,10.46
2022-10-16T10:37:39.059Z,10.47
2022-10-16T10:40:29.755Z,10.47
2022-10-16T10:43:05.880Z,10.50
2022-10-16T10:45:46.377Z,10.49
2022-10-16T10:48:50.567Z,10.56
2022-10-16T10:51:29.577Z,10.66
2022-10-16T10:54:24.579Z,10.80
2022-10-16T10:57:09.133Z,10.94
2022-10-16T10:59:57.331Z,11.08
2022-10-16T11:02:56.638Z,11.20
2022-10-16T11:05:42.399Z,11.35
2022-10-16T11:08:19.123Z,11.45
2022-10-16T11:10:54.847Z,11.55
2022-10-16T11:13:44.938Z,11.65
2022-10-16T11:16:24.931Z,11.82
2022-10-16T11:19:00.079Z,11.98
2022-10-16T11:21:31.776Z,12.12
2022-10-16T11:24:07.736Z,12.21
2022-10-16T11:26:41.183Z,12.34
2022-10-16T11:29:19.499Z,12.42
2022-10-16T11:31:54.935Z,12.52
2022-10-16T11:34:43.072Z,12.58
2022-10-16T11:37:19.762Z,12.64
2022-10-16T11:39:47.948Z,12.70
2022-10-16T11:42:30.722Z,12.72
2022-10-16T11:45:26.010Z,12.75
2022-10-16T11:48:03.849Z,12.74
2022-10-16T11:50:41.051Z,12.79
2022-10-16T11:53:49.129Z,12.86
2022-10-16T11:56:21.656Z,12.89
2022-10-16T11:59:13.972Z,12.94
2022-10-16T12:02:26.907Z,12.96
2022-10-16T12:05:17.972Z,13.02
2022-10-16T12:08:06.756Z,13.03
2022-10-16T12:13:43.448Z,13.12
2022-10-16T12:16:13.372Z,13.21
2022-10-16T12:18:43.688Z,13.25
2022-10-16T12:21:14.626Z,13.31
2022-10-16T12:23:53.485Z,13.40
2022-10-16T12:26:42.893Z,13.47
2022-10-16T12:29:40.002Z,13.57
2022-10-16T12:32:48.471Z,13.72
2022-10-16T12:35:30.149Z,13.80
2022-10-16T12:38:09.125Z,13.90
2022-10-16T12:40:39.146Z,13.92
2022-10-16T12:43:23.814Z,13.93
2022-10-16T12:46:10.841Z,13.94
2022-10-16T12:48:55.412Z,13.96
2022-10-16T12:51:37.899Z,13.96
2022-10-16T12:54:20.307Z,13.94
2022-10-16T12:57:02.273Z,13.95
2022-10-16T12:59:44.181Z,13.93
2022-10-16T13:02:36.017Z,13.96
2022-10-16T13:05:12.043Z,14.06
2022-10-16T13:07:57.011Z,14.12
2022-10-16T13:11:03.824Z,14.11
2022-10-16T13:13:56.578Z,14.14
2022-10-16T13:16:54.001Z,14.15
2022-10-16T13:19:45.202Z,14.15
2022-10-16T13:22:31.345Z,14.15
2022-10-16T13:25:19.325Z,14.23
2022-10-16T13:28:04.272Z,14.20
2022-10-16T13:30:42.000Z,14.33
2022-10-16T13:33:18.676Z,14.33
2022-10-16T13:35:55.460Z,14.27
2022-10-16T13:38:33.167Z,14.19
2022-10-16T13:41:12.925Z,14.12
2022-10-16T13:43:47.228Z,14.01
2022-10-16T13:46:19.807Z,13.94
2022-10-16T13:49:02.074Z,13.84
2022-10-16T13:51:30.369Z,13.80
2022-10-16T13:53:58.570Z,13.74
2022-10-16T13:56:34.139Z,13.78
2022-10-16T13:59:07.133Z,13.83
2022-10-16T14:01:44.854Z,13.80
2022-10-16T14:04:15.092Z,13.81
2022-10-16T14:06:46.097Z,13.82
2022-10-16T14:09:31.323Z,13.81
2022-10-16T14:12:03.794Z,13.88
2022-10-16T14:14:42.586Z,13.83
2022-10-16T14:17:27.697Z,13.80
2022-10-16T14:20:04.156Z,13.77
2022-10-16T14:22:43.700Z,13.73
2022-10-16T14:25:22.868Z,13.70
2022-10-16T14:28:16.134Z,13.73
2022-10-16T14:31:01.196Z,13.80
2022-10-16T14:33:31.046Z,13.86
2022-10-16T14:36:05.439Z,13.90
2022-10-16T14:38:33.811Z,13.90
2022-10-16T14:41:02.180Z,13.89
2022-10-16T14:43:39.123Z,13.84
2022-10-16T14:46:16.007Z,13.81
2022-10-16T14:48:45.347Z,13.83
2022-10-16T14:51:18.017Z,13.79
2022-10-16T14:53:44.825Z,13.80
2022-10-16T14:56:23.285Z,13.77
2022-10-16T14:58:52.337Z,13.82
2022-10-16T15:01:19.810Z,13.81
2022-10-16T15:03:47.077Z,13.83
2022-10-16T15:06:16.437Z,13.80
2022-10-16T15:08:44.344Z,13.76
2022-10-16T15:11:15.580Z,13.70
2022-10-16T15:13:42.813Z,13.71
2022-10-16T15:16:16.240Z,13.70
2022-10-16T15:18:43.612Z,13.71
2022-10-16T15:21:27.519Z,13.74
2022-10-16T15:23:54.710Z,13.82
2022-10-16T15:26:21.480Z,13.87
2022-10-16T15:28:48.327Z,13.92
2022-10-16T15:31:15.234Z,13.99
2022-10-16T15:33:42.386Z,13.96
2022-10-16T15:36:09.449Z,13.97
2022-10-16T15:38:36.518Z,13.93
2022-10-16T15:41:03.629Z,13.89
2022-10-16T15:43:30.470Z,13.80
2022-10-16T15:46:12.436Z,13.70
2022-10-16T15:48:39.451Z,13.63
2022-10-16T15:51:08.371Z,13.56
2022-10-16T15:53:35.952Z,13.53
2022-10-16T15:56:07.685Z,13.45
2022-10-16T15:58:35.156Z,13.43
2022-10-16T16:01:03.054Z,13.39
2022-10-16T16:03:30.199Z,13.34
2022-10-16T16:05:58.096Z,13.30
2022-10-16T16:08:25.016Z,13.28
2022-10-16T16:11:12.652Z,13.21
2022-10-16T16:13:40.001Z,13.21
2022-10-16T16:16:12.300Z,13.19
2022-10-16T16:18:40.122Z,13.16
2022-10-16T16:21:07.501Z,13.11
2022-10-16T16:23:34.745Z,13.07
2022-10-16T16:26:25.064Z,13.04
2022-10-16T16:28:52.023Z,13.01
2022-10-16T16:31:19.073Z,12.98
2022-10-16T16:33:46.084Z,12.94
2022-10-16T16:36:15.897Z,12.92
2022-10-16T16:38:43.022Z,12.91
2022-10-16T16:41:26.443Z,12.87
2022-10-16T16:43:54.964Z,12.86
2022-10-16T16:46:22.773Z,12.83
2022-10-16T16:48:54.616Z,12.80
2022-10-16T16:51:21.535Z,12.77
2022-10-16T16:53:53.759Z,12.76
2022-10-16T16:56:23.436Z,12.74
2022-10-16T16:58:53.191Z,12.67
2022-10-16T17:01:21.631Z,12.64
2022-10-16T17:03:53.183Z,12.56
2022-10-16T17:06:27.541Z,12.54
2022-10-16T17:08:54.678Z,12.52
2022-10-16T17:11:27.503Z,12.54
2022-10-16T17:13:57.129Z,12.55
2022-10-16T17:16:34.243Z,12.54
2022-10-16T17:19:04.039Z,12.55
2022-10-16T17:21:33.065Z,12.55
2022-10-16T17:24:01.938Z,12.60
2022-10-16T17:26:29.989Z,12.61
2022-10-16T17:29:00.590Z,12.66
2022-10-16T17:31:34.944Z,12.68
2022-10-16T17:34:04.991Z,12.72
2022-10-16T17:36:36.076Z,12.77
2022-10-16T17:39:10.985Z,12.76
2022-10-16T17:41:38.543Z,12.76
2022-10-16T17:44:07.461Z,12.72
2022-10-16T17:46:38.386Z,12.73
2022-10-16T17:49:09.905Z,12.67
2022-10-16T17:51:36.843Z,12.73
2022-10-16T17:54:03.816Z,12.77
2022-10-16T17:56:31.605Z,12.77
2022-10-16T17:59:01.981Z,12.80
2022-10-16T18:01:40.596Z,12.81
2022-10-16T18:04:15.052Z,12.84
2022-10-16T18:06:44.075Z,12.84
2022-10-16T18:09:15.217Z,12.81
2022-10-16T18:11:42.092Z,12.83
2022-10-16T18:14:09.130Z,12.85
2022-10-16T18:16:37.029Z,12.85
2022-10-16T18:19:03.975Z,12.84
2022-10-16T18:21:30.951Z,12.85
2022-10-16T18:24:01.489Z,12.83
2022-10-16T18:26:28.856Z,12.86
2022-10-16T18:28:57.602Z,12.85
2022-10-16T18:31:26.760Z,12.87
2022-10-16T18:33:56.007Z,12.87
2022-10-16T18:36:32.821Z,12.84
2022-10-16T18:39:02.021Z,12.83
2022-10-16T18:41:29.106Z,12.85
2022-10-16T18:43:59.282Z,12.83
2022-10-16T18:46:26.693Z,12.85
2022-10-16T18:48:54.800Z,12.87
2022-10-16T18:51:26.201Z,12.85
2022-10-16T18:54:00.272Z,12.90
2022-10-16T18:56:30.481Z,12.85
2022-10-16T18:59:00.872Z,12.84
2022-10-16T19:01:30.383Z,12.83
2022-10-16T19:04:13.873Z,12.84
2022-10-16T19:06:47.105Z,12.82
2022-10-16T19:09:16.859Z,12.87
2022-10-16T19:11:44.708Z,12.85
2022-10-16T19:14:14.094Z,12.82
2022-10-16T19:16:43.190Z,12.80
2022-10-16T19:19:18.470Z,12.79
2022-10-16T19:21:47.945Z,12.80
2022-10-16T19:24:16.718Z,12.75
2022-10-16T19:26:44.078Z,12.76
2022-10-16T19:29:11.977Z,12.71
2022-10-16T19:31:39.907Z,12.72
2022-10-16T19:34:07.675Z,12.67
2022-10-16T19:36:37.111Z,12.70
2022-10-16T19:39:08.628Z,12.65
2022-10-16T19:41:37.215Z,12.62
2022-10-16T19:44:08.306Z,12.63
2022-10-16T19:46:36.136Z,12.59
2022-10-16T19:49:06.463Z,12.58
2022-10-16T19:51:34.294Z,12.52
2022-10-16T19:54:05.201Z,12.46
2022-10-16T19:56:33.941Z,12.37
2022-10-16T19:59:01.404Z,12.31
2022-10-16T20:01:31.610Z,12.28
2022-10-16T20:03:59.030Z,12.24
2022-10-16T20:06:26.676Z,12.19
2022-10-16T20:08:55.281Z,12.19
2022-10-16T20:11:26.441Z,12.17
2022-10-16T20:13:53.692Z,12.15
2022-10-16T20:16:21.153Z,12.13
2022-10-16T20:18:51.249Z,12.15
2022-10-16T20:21:29.853Z,12.13
2022-10-16T20:23:57.814Z,12.15
2022-10-16T20:26:26.197Z,12.17
2022-10-16T20:28:54.521Z,12.18
2022-10-16T20:31:25.686Z,12.20
2022-10-16T20:33:55.272Z,12.22
2022-10-16T20:36:24.777Z,12.26
2022-10-16T20:38:52.029Z,12.22
2022-10-16T20:41:19.542Z,12.28
2022-10-16T20:43:48.573Z,12.29
2022-10-16T20:46:20.484Z,12.26
2022-10-16T20:48:47.850Z,12.31
2022-10-16T20:51:24.710Z,12.28
2022-10-16T20:54:04.256Z,12.27
2022-10-16T20:56:34.763Z,12.32
2022-10-16T20:59:01.612Z,12.34
2022-10-16T21:01:31.205Z,12.35
2022-10-16T21:04:02.095Z,12.38
2022-10-16T21:06:32.536Z,12.41
2022-10-16T21:09:04.232Z,12.44
2022-10-16T21:11:34.887Z,12.44
2022-10-16T21:14:05.864Z,12.47
2022-10-16T21:16:34.525Z,12.47
2022-10-16T21:19:01.492Z,12.55
2022-10-16T21:21:32.360Z,12.54
2022-10-16T21:24:00.667Z,12.53
2022-10-16T21:26:29.143Z,12.59
2022-10-16T21:29:02.117Z,12.57
2022-10-16T21:31:30.182Z,12.61
2022-10-16T21:33:57.769Z,12.62
2022-10-16T21:36:28.744Z,12.63
2022-10-16T21:38:56.773Z,12.66
2022-10-16T21:41:27.365Z,12.64
2022-10-16T21:43:56.467Z,12.60
2022-10-16T21:46:28.208Z,12.67
2022-10-16T21:49:00.849Z,12.66
2022-10-16T21:51:34.047Z,12.70
2022-10-16T21:54:02.294Z,12.71
2022-10-16T21:56:29.408Z,12.70
2022-10-16T21:58:56.464Z,12.68
2022-10-16T22:01:25.937Z,12.74
2022-10-16T22:03:53.095Z,12.71
2022-10-16T22:06:24.391Z,12.77
2022-10-16T22:08:53.312Z,12.74
2022-10-16T22:11:27.962Z,12.79
2022-10-16T22:13:57.051Z,12.80
2022-10-16T22:16:27.160Z,12.80
2022-10-16T22:18:56.353Z,12.81
2022-10-16T22:21:24.318Z,12.85
2022-10-16T22:23:51.923Z,12.90
2022-10-16T22:26:18.785Z,12.92
2022-10-16T22:28:45.776Z,12.97
2022-10-16T22:31:14.633Z,12.98
2022-10-16T22:33:42.231Z,12.98
2022-10-16T22:36:13.462Z,13.04
2022-10-16T22:38:40.664Z,13.09
2022-10-16T22:41:13.019Z,13.10
2022-10-16T22:43:44.145Z,13.09
2022-10-16T22:46:18.454Z,13.12
2022-10-16T22:48:45.598Z,13.10
2022-10-16T22:51:17.398Z,13.16
2022-10-16T22:53:46.735Z,13.15
2022-10-16T22:56:15.512Z,13.20
2022-10-16T22:58:43.469Z,13.19
2022-10-16T23:01:30.901Z,13.22
2022-10-16T23:03:57.971Z,13.23
2022-10-16T23:06:25.139Z,13.23
2022-10-16T23:08:59.073Z,13.22
2022-10-16T23:11:26.983Z,13.19
2022-10-16T23:13:53.950Z,13.17
2022-10-16T23:16:23.113Z,13.15
2022-10-16T23:18:50.832Z,13.13
2022-10-16T23:21:22.005Z,13.11
2022-10-16T23:23:51.886Z,13.10
2022-10-16T23:26:23.837Z,13.06
2022-10-16T23:28:50.984Z,13.08
2022-10-16T23:31:18.819Z,13.10
2022-10-16T23:33:45.701Z,13.13
2022-10-16T23:36:17.096Z,13.12
2022-10-16T23:38:44.926Z,13.20
2022-10-16T23:41:11.995Z,13.22
2022-10-16T23:43:40.560Z,13.27
2022-10-16T23:46:10.067Z,13.33
2022-10-16T23:48:40.270Z,13.34
2022-10-16T23:51:08.842Z,13.40
2022-10-16T23:53:35.970Z,13.45
2022-10-16T23:56:02.802Z,13.51
2022-10-16T23:58:29.609Z,13.53
